Time;durP1;ratioP1;P1;durP2;ratioP2;P2;SDS_P1;SDS_P2;PMS_P1;PMS_P2;Temp;Humidity;BMP_temperature;BMP_pressure;BME280_temperature;BME280_humidity;BME280_pressure;Samples;Min_cycle;Max_cycle;Signal;HPM_P1;HPM_P2
2023/09/21 00:01:06;;;;;;;8.85;4.80;;;;;;;17.87;67.28;99489.88;5071294;28;20039;-38
2023/09/21 00:03:37;;;;;;;7.00;4.70;;;;;;;17.73;68.07;99475.03;5053911;28;20040;-39
2023/09/21 00:06:04;;;;;;;9.45;5.18;;;;;;;18.01;68.23;99526.63;5074071;28;20097;-47
2023/09/21 00:08:30;;;;;;;7.57;5.03;;;;;;;17.98;68.94;99521.56;5075513;28;20050;-38
2023/09/21 00:10:58;;;;;;;9.13;4.50;;;;;;;17.97;69.38;99524.28;5077461;28;20184;-38
2023/09/21 00:13:27;;;;;;;6.53;4.10;;;;;;;17.78;70.39;99506.28;5074974;28;20591;-38
2023/09/21 00:15:59;;;;;;;9.43;4.60;;;;;;;17.89;70.54;99530.09;5075031;28;20562;-38
2023/09/21 00:18:25;;;;;;;10.27;4.72;;;;;;;17.87;70.98;99524.06;5068715;28;20150;-37
2023/09/21 00:20:54;;;;;;;8.15;4.80;;;;;;;17.87;71.05;99521.44;5079911;28;20044;-38
2023/09/21 00:23:24;;;;;;;7.78;4.82;;;;;;;17.88;71.10;99523.13;5054824;28;20040;-38
2023/09/21 00:25:54;;;;;;;6.75;4.88;;;;;;;17.89;71.25;99522.19;5076345;28;20040;-38
2023/09/21 00:28:21;;;;;;;7.38;4.80;;;;;;;17.85;71.83;99517.25;5071072;28;20134;-39
2023/09/21 00:30:49;;;;;;;14.43;6.25;;;;;;;17.82;71.76;99523.53;5067078;28;20123;-38
2023/09/21 00:33:15;;;;;;;7.95;4.60;;;;;;;17.83;72.23;99533.13;5073805;28;20049;-38
2023/09/21 00:35:41;;;;;;;8.68;5.30;;;;;;;17.84;72.02;99526.94;5073388;28;20048;-37
2023/09/21 00:38:14;;;;;;;10.25;5.80;;;;;;;17.89;71.79;99530.09;5073806;28;20765;-38
2023/09/21 00:40:42;;;;;;;7.95;5.22;;;;;;;17.90;71.93;99533.56;5082016;28;20067;-38
2023/09/21 00:43:12;;;;;;;7.40;5.68;;;;;;;17.82;72.59;99530.59;5056853;28;20037;-38
2023/09/21 00:45:41;;;;;;;8.75;5.35;;;;;;;17.78;72.58;99530.81;5073899;28;20134;-38
2023/09/21 00:48:09;;;;;;;8.55;5.70;;;;;;;17.74;72.90;99528.47;5069832;28;20079;-36
2023/09/21 00:50:37;;;;;;;9.93;5.55;;;;;;;17.75;73.02;99536.25;5075476;28;20196;-38
2023/09/21 00:53:05;;;;;;;7.90;5.25;;;;;;;17.74;73.31;99534.56;5078187;28;20032;-39
2023/09/21 00:55:32;;;;;;;8.60;5.50;;;;;;;17.73;73.15;99535.53;5073003;28;20531;-39
2023/09/21 00:58:02;;;;;;;10.55;5.03;;;;;;;17.45;73.14;99480.41;5060744;28;20260;-38
2023/09/21 01:00:31;;;;;;;9.48;5.55;;;;;;;17.79;72.88;99542.16;5097184;28;20806;-38
2023/09/21 01:03:11;;;;;;;8.73;5.13;;;;;;;17.80;72.75;99546.47;5070653;28;20055;-38
2023/09/21 01:05:40;;;;;;;8.57;5.38;;;;;;;17.65;72.79;99515.91;5061035;28;20056;-38
2023/09/21 01:08:11;;;;;;;9.57;6.22;;;;;;;17.84;72.82;99545.34;5075231;28;20040;-37
2023/09/21 01:10:41;;;;;;;6.82;5.38;;;;;;;17.63;73.21;99530.97;5072159;28;20047;-37
2023/09/21 01:13:10;;;;;;;10.25;5.38;;;;;;;17.82;73.10;99554.25;5076223;28;20041;-38
2023/09/21 01:15:37;;;;;;;9.85;4.90;;;;;;;17.85;72.97;99559.34;5075292;28;20117;-38
2023/09/21 01:18:07;;;;;;;8.70;5.22;;;;;;;17.81;73.26;99556.03;5058665;28;20040;-39
2023/09/21 01:20:34;;;;;;;11.48;5.22;;;;;;;17.84;73.28;99561.13;5069828;28;20099;-38
2023/09/21 01:23:00;;;;;;;8.85;4.53;;;;;;;17.92;72.76;99564.06;5066772;28;20066;-37
2023/09/21 01:25:26;;;;;;;9.07;5.13;;;;;;;17.84;73.04;99566.38;5056254;28;20072;-38
2023/09/21 01:27:53;;;;;;;7.20;5.38;;;;;;;17.76;73.37;99556.34;5054592;28;20857;-38
2023/09/21 01:30:19;;;;;;;9.23;6.03;;;;;;;17.76;73.48;99558.97;5078604;28;20044;-39
2023/09/21 01:32:45;;;;;;;10.52;5.80;;;;;;;17.78;73.69;99564.16;5079262;28;20062;-38
2023/09/21 01:35:12;;;;;;;7.72;5.60;;;;;;;17.62;73.68;99542.41;5069749;28;20036;-39
2023/09/21 01:37:40;;;;;;;9.10;5.55;;;;;;;17.73;73.95;99559.19;5073685;28;20136;-38
2023/09/21 01:40:13;;;;;;;7.57;5.57;;;;;;;17.69;73.96;99557.69;5074280;28;20612;-38
2023/09/21 01:42:38;;;;;;;8.65;5.40;;;;;;;17.71;74.05;99557.59;5069844;28;20178;-39
2023/09/21 01:45:12;;;;;;;10.32;5.53;;;;;;;17.67;74.21;99575.38;5075382;28;20040;-38
2023/09/21 01:47:37;;;;;;;11.02;5.65;;;;;;;17.52;74.78;99552.66;5073515;28;20126;-38
2023/09/21 01:50:06;;;;;;;9.25;5.43;;;;;;;17.64;74.67;99572.91;5078201;28;20090;-38
2023/09/21 01:52:33;;;;;;;9.97;5.07;;;;;;;17.62;74.76;99569.56;5072924;28;20491;-38
2023/09/21 01:54:59;;;;;;;7.47;5.45;;;;;;;17.57;75.06;99568.13;5078560;28;20068;-38
2023/09/21 01:57:25;;;;;;;7.70;5.30;;;;;;;17.59;74.90;99575.00;5078148;28;20032;-39
2023/09/21 01:59:51;;;;;;;8.80;5.35;;;;;;;17.56;75.42;99587.47;5059952;28;20046;-38
2023/09/21 02:02:20;;;;;;;9.15;5.90;;;;;;;17.57;75.33;99587.38;5079142;28;20055;-37
2023/09/21 02:04:50;;;;;;;8.48;5.43;;;;;;;17.54;75.52;99578.84;5071087;28;20041;-38
2023/09/21 02:07:16;;;;;;;9.32;5.55;;;;;;;17.56;75.54;99583.06;5063589;28;20065;-38
2023/09/21 02:09:42;;;;;;;9.10;5.47;;;;;;;17.61;75.37;99580.16;5065203;28;20041;-39
2023/09/21 02:12:07;;;;;;;7.55;5.45;;;;;;;17.63;75.31;99578.28;5054262;28;20051;-38
2023/09/21 02:14:33;;;;;;;10.00;6.18;;;;;;;17.62;75.33;99580.06;5052040;28;20066;-38
2023/09/21 02:16:59;;;;;;;8.20;5.97;;;;;;;17.49;75.21;99560.72;5061779;28;20427;-39
2023/09/21 02:19:26;;;;;;;9.25;6.15;;;;;;;17.65;75.12;99587.75;5070949;28;20040;-39
2023/09/21 02:21:54;;;;;;;9.50;5.47;;;;;;;17.67;74.95;99582.41;5076462;28;20040;-38
2023/09/21 02:24:20;;;;;;;7.00;5.00;;;;;;;17.45;75.30;99555.78;5078204;28;20047;-38
2023/09/21 02:26:48;;;;;;;10.80;5.20;;;;;;;17.60;75.42;99581.94;5030403;28;20123;-37
2023/09/21 02:29:14;;;;;;;7.38;4.95;;;;;;;17.59;75.25;99584.63;5072475;28;20174;-38
2023/09/21 02:31:42;;;;;;;8.10;5.53;;;;;;;17.58;75.25;99575.94;5092629;28;20071;-38
2023/09/21 02:34:09;;;;;;;7.88;5.13;;;;;;;17.59;75.30;99582.88;5079872;28;20170;-37
2023/09/21 02:36:35;;;;;;;7.20;5.35;;;;;;;17.58;75.17;99588.25;5071285;28;20469;-39
2023/09/21 02:39:01;;;;;;;8.93;5.15;;;;;;;17.50;75.02;99565.06;5058170;28;20127;-38
2023/09/21 02:41:27;;;;;;;8.15;4.68;;;;;;;17.61;75.11;99596.78;5073963;28;20075;-38
2023/09/21 02:43:53;;;;;;;6.38;4.75;;;;;;;17.59;75.31;99595.16;5077587;28;20435;-38
2023/09/21 02:46:19;;;;;;;7.18;5.05;;;;;;;17.60;75.16;99596.88;5062470;28;20045;-38
2023/09/21 02:48:46;;;;;;;6.65;5.57;;;;;;;17.68;75.12;99595.47;5069936;28;20039;-38
2023/09/21 02:51:12;;;;;;;6.65;4.63;;;;;;;17.63;75.24;99599.34;5055502;28;20428;-38
2023/09/21 02:53:38;;;;;;;6.38;4.65;;;;;;;17.61;75.24;99595.94;5071025;28;20032;-39
2023/09/21 02:56:05;;;;;;;6.05;4.40;;;;;;;17.54;75.65;99602.50;5062595;28;20047;-38
2023/09/21 02:58:32;;;;;;;6.18;4.88;;;;;;;17.38;75.46;99571.09;5074436;28;20045;-39
2023/09/21 03:00:58;;;;;;;9.93;5.35;;;;;;;17.56;75.58;99613.78;5075076;28;20047;-38
2023/09/21 03:03:27;;;;;;;8.02;4.57;;;;;;;17.51;75.98;99611.44;5073746;28;20138;-38
2023/09/21 03:05:55;;;;;;;8.88;4.30;;;;;;;17.53;75.76;99613.97;5071610;28;20519;-39
2023/09/21 03:08:22;;;;;;;7.15;4.60;;;;;;;17.51;75.83;99614.06;5078254;28;20031;-38
2023/09/21 03:10:54;;;;;;;6.72;4.93;;;;;;;17.25;75.87;99576.31;5058310;28;20048;-38
2023/09/21 03:13:21;;;;;;;7.47;4.80;;;;;;;17.52;76.09;99618.38;5050779;28;20047;-38
2023/09/21 03:15:53;;;;;;;6.50;4.30;;;;;;;17.37;76.24;99598.34;5051955;28;20052;-37
2023/09/21 03:18:20;;;;;;;6.35;4.65;;;;;;;17.53;76.07;99620.09;5077943;28;20043;-37
2023/09/21 03:20:48;;;;;;;8.07;4.83;;;;;;;17.53;76.09;99620.09;5053878;28;20114;-38
2023/09/21 03:23:15;;;;;;;8.00;5.10;;;;;;;17.55;76.00;99617.34;5073744;28;20032;-37
2023/09/21 03:25:47;;;;;;;7.50;4.30;;;;;;;17.55;75.87;99633.09;5066309;28;20083;-38
2023/09/21 03:28:15;;;;;;;6.97;4.88;;;;;;;17.55;75.85;99628.69;5063249;28;20473;-38
2023/09/21 03:30:46;;;;;;;6.78;4.43;;;;;;;17.58;75.99;99627.66;5069149;28;20098;-38
2023/09/21 03:33:15;;;;;;;5.43;4.00;;;;;;;17.50;75.82;99606.28;5067211;28;20128;-37
2023/09/21 03:35:41;;;;;;;9.45;4.78;;;;;;;17.39;75.81;99593.81;5064405;28;20139;-37
2023/09/21 03:38:12;;;;;;;7.20;4.53;;;;;;;17.58;75.97;99627.66;5064863;28;20087;-39
2023/09/21 03:40:39;;;;;;;6.53;4.40;;;;;;;17.63;75.52;99623.84;5056709;28;20106;-38
2023/09/21 03:43:06;;;;;;;5.15;3.63;;;;;;;17.65;75.46;99635.09;5065149;28;20093;-38
2023/09/21 03:45:34;;;;;;;7.45;4.07;;;;;;;17.48;75.47;99601.09;5078729;28;20139;-39
2023/09/21 03:48:04;;;;;;;7.93;4.20;;;;;;;17.51;75.29;99614.06;5079191;28;20047;-37
2023/09/21 03:50:31;;;;;;;5.70;4.28;;;;;;;17.77;74.88;99638.72;5074897;28;20121;-37
2023/09/21 03:53:05;;;;;;;5.65;4.10;;;;;;;17.78;74.63;99635.16;5079591;28;20126;-40
2023/09/21 03:55:32;;;;;;;7.55;4.32;;;;;;;17.60;75.03;99631.06;5063864;28;20087;-38
2023/09/21 03:57:59;;;;;;;5.32;4.07;;;;;;;17.74;74.78;99647.63;5070080;28;20547;-38
2023/09/21 04:03:06;;;;;;;7.65;4.20;;;;;;;17.85;74.42;99657.47;5079374;28;20072;-39
2023/09/21 04:05:37;;;;;;;9.00;4.03;;;;;;;17.86;74.53;99656.53;5058125;28;20037;-44
2023/09/21 04:08:04;;;;;;;4.85;3.53;;;;;;;17.89;74.36;99655.50;5042586;28;20522;-40
2023/09/21 04:10:31;;;;;;;8.65;4.30;;;;;;;17.92;74.31;99656.13;5080558;28;20047;-38
2023/09/21 04:12:57;;;;;;;7.65;3.83;;;;;;;18.05;73.75;99657.03;5073370;28;20101;-39
2023/09/21 04:15:27;;;;;;;4.90;4.03;;;;;;;18.06;73.49;99661.34;5080575;28;20052;-38
2023/09/21 04:17:54;;;;;;;6.00;4.55;;;;;;;18.00;73.79;99666.16;5070836;28;20519;-39
2023/09/21 04:20:22;;;;;;;6.95;4.68;;;;;;;18.06;73.69;99657.84;5076216;28;20047;-38
2023/09/21 04:22:51;;;;;;;6.20;4.47;;;;;;;18.00;73.88;99661.75;5060343;28;20818;-40
2023/09/21 04:25:18;;;;;;;7.20;4.85;;;;;;;17.97;73.92;99666.34;5065017;28;20044;-37
2023/09/21 04:27:48;;;;;;;7.03;4.97;;;;;;;18.01;73.80;99663.41;5074588;28;20458;-37
2023/09/21 04:30:16;;;;;;;;;;;;;;;18.02;74.05;99669.53;5074052;28;20112;-38
2023/09/21 04:32:47;;;;;;;11.73;5.63;;;;;;;18.01;74.06;99659.94;5076906;28;19959;-38
2023/09/21 04:35:15;;;;;;;8.27;5.60;;;;;;;18.09;73.79;99662.94;5040548;28;20045;-38
2023/09/21 04:37:45;;;;;;;10.65;6.18;;;;;;;18.01;73.90;99662.56;5066521;28;20057;-38
2023/09/21 04:40:12;;;;;;;10.63;5.32;;;;;;;18.09;73.94;99674.31;5079227;28;20040;-39
2023/09/21 04:42:47;;;;;;;14.27;5.72;;;;;;;18.16;73.51;99680.03;5063698;28;20036;-38
2023/09/21 04:45:18;;;;;;;9.27;5.80;;;;;;;18.16;73.57;99677.38;5073217;28;20044;-37
2023/09/21 04:47:49;;;;;;;11.70;6.00;;;;;;;18.24;73.61;99685.59;5071151;28;20041;-38
2023/09/21 04:50:19;;;;;;;;;;;;;;;18.24;73.25;99690.88;5071374;28;20056;-38
2023/09/21 04:52:48;;;;;;;8.90;5.70;;;;;;;18.27;73.20;99693.28;5074262;28;19924;-37
2023/09/21 04:55:16;;;;;;;8.05;5.18;;;;;;;18.12;72.90;99668.81;5075849;28;20048;-38
2023/09/21 04:57:45;;;;;;;6.75;5.50;;;;;;;18.30;73.02;99694.91;5079488;28;20723;-38
2023/09/21 05:00:13;;;;;;;11.55;5.68;;;;;;;18.29;73.12;99696.69;5057082;28;20036;-37
2023/09/21 05:02:40;;;;;;;8.63;5.72;;;;;;;18.25;72.81;99671.50;5070320;28;20113;-37
2023/09/21 05:05:07;;;;;;;8.80;5.80;;;;;;;18.39;72.60;99702.16;5057505;28;20632;-38
2023/09/21 05:07:35;;;;;;;7.53;5.32;;;;;;;18.23;72.42;99694.44;5059510;28;20133;-38
2023/09/21 05:10:03;;;;;;;8.13;4.63;;;;;;;18.25;72.56;99708.34;5068939;28;20040;-39
2023/09/21 05:12:29;;;;;;;6.90;4.80;;;;;;;18.22;72.72;99708.53;5065417;28;20032;-37
2023/09/21 05:14:57;;;;;;;9.23;5.25;;;;;;;18.28;72.42;99709.94;5062015;28;20036;-37
2023/09/21 05:17:23;;;;;;;11.52;5.40;;;;;;;18.28;72.58;99717.81;5074914;28;20040;-38
2023/09/21 05:19:50;;;;;;;8.32;5.35;;;;;;;18.27;72.69;99719.59;5071342;28;20094;-39
2023/09/21 05:22:16;;;;;;;8.45;5.47;;;;;;;18.26;72.54;99715.31;5071795;28;20036;-39
2023/09/21 05:24:43;;;;;;;7.50;5.30;;;;;;;18.25;72.53;99721.50;5075816;28;20539;-39
2023/09/21 05:27:11;;;;;;;10.40;5.13;;;;;;;18.26;72.57;99710.06;5074410;28;20052;-38
2023/09/21 05:29:39;;;;;;;8.45;5.22;;;;;;;18.34;72.34;99720.06;5074442;28;20424;-39
2023/09/21 05:32:06;;;;;;;6.78;4.50;;;;;;;18.48;71.99;99712.09;5065327;28;20089;-38
2023/09/21 05:34:32;;;;;;;8.13;5.05;;;;;;;18.61;71.55;99726.19;5080943;28;20130;-38
2023/09/21 05:36:59;;;;;;;8.93;5.30;;;;;;;18.59;71.03;99707.00;5073836;28;20036;-38
2023/09/21 05:39:25;;;;;;;7.28;4.95;;;;;;;18.67;70.60;99699.44;5077550;28;20256;-39
2023/09/21 05:41:54;;;;;;;7.75;5.18;;;;;;;18.94;70.28;99726.56;5075090;28;20095;-38
2023/09/21 05:44:25;;;;;;;11.82;5.30;;;;;;;19.00;69.49;99705.03;5079274;28;20031;-38
2023/09/21 05:46:52;;;;;;;7.95;5.18;;;;;;;19.20;69.12;99726.56;5075650;28;20064;-39
2023/09/21 05:49:22;;;;;;;7.55;4.95;;;;;;;19.29;68.80;99726.75;5062622;28;20456;-38
2023/09/21 05:51:52;;;;;;;7.20;4.85;;;;;;;19.27;68.59;99717.25;5078628;28;20511;-39
2023/09/21 05:54:20;;;;;;;7.40;5.43;;;;;;;19.35;68.40;99730.75;5060836;28;20039;-39
2023/09/21 05:56:47;;;;;;;8.68;5.50;;;;;;;19.35;68.09;99726.34;5069457;28;20040;-39
2023/09/21 05:59:13;;;;;;;9.00;5.75;;;;;;;19.25;67.87;99706.84;5059929;28;20040;-38
2023/09/21 06:01:39;;;;;;;10.00;5.50;;;;;;;19.52;67.66;99726.97;5074257;28;20764;-40
2023/09/21 06:04:05;;;;;;;9.88;5.78;;;;;;;19.71;67.20;99736.13;5078601;28;20085;-38
2023/09/21 06:06:33;;;;;;;10.40;5.80;;;;;;;19.70;66.99;99733.56;5079373;28;20056;-39
2023/09/21 06:08:59;;;;;;;10.88;5.85;;;;;;;19.59;66.88;99713.22;5067802;28;20040;-39
2023/09/21 06:11:26;;;;;;;10.55;5.38;;;;;;;19.80;66.79;99746.00;5076752;28;20097;-38
2023/09/21 06:13:54;;;;;;;13.13;6.53;;;;;;;19.73;66.58;99741.28;5077851;28;20035;-37
2023/09/21 06:16:21;;;;;;;9.02;6.10;;;;;;;19.63;66.93;99738.44;5075537;28;20066;-37
2023/09/21 06:18:48;;;;;;;10.18;7.05;;;;;;;19.58;66.88;99737.91;5058719;28;20497;-40
2023/09/21 06:21:17;;;;;;;10.68;6.63;;;;;;;19.55;67.02;99746.06;5068469;28;20490;-37
2023/09/21 06:23:44;;;;;;;11.30;6.85;;;;;;;19.55;66.89;99750.50;5064498;28;20040;-37
2023/09/21 06:26:18;;;;;;;10.02;6.07;;;;;;;19.70;66.63;99755.53;5073739;28;20040;-38
2023/09/21 06:28:47;;;;;;;10.82;5.97;;;;;;;19.81;66.48;99752.13;5066545;28;20139;-39
2023/09/21 06:31:14;;;;;;;9.63;6.10;;;;;;;19.77;66.13;99735.69;5077519;28;20515;-39
2023/09/21 06:33:40;;;;;;;11.02;6.20;;;;;;;19.71;66.42;99759.00;5073807;28;20067;-40
2023/09/21 06:36:20;;;;;;;10.77;6.60;;;;;;;19.39;66.40;99716.41;5062081;28;20044;-39
2023/09/21 06:38:47;;;;;;;12.32;6.60;;;;;;;19.63;66.23;99740.22;5073418;28;20037;-39
2023/09/21 06:41:13;;;;;;;13.38;7.28;;;;;;;19.81;65.96;99757.41;5064912;28;20044;-39
2023/09/21 06:43:42;;;;;;;11.52;6.13;;;;;;;19.87;65.64;99756.97;5063022;28;20099;-39
2023/09/21 06:46:09;;;;;;;8.80;6.40;;;;;;;20.04;65.48;99753.97;5075562;28;20036;-39
2023/09/21 06:48:35;;;;;;;10.82;6.82;;;;;;;20.06;65.44;99753.84;5063372;28;20045;-39
2023/09/21 06:51:03;;;;;;;11.88;6.65;;;;;;;20.11;65.17;99749.06;5071402;28;20036;-38
2023/09/21 06:53:29;;;;;;;10.10;6.25;;;;;;;20.27;64.72;99742.56;5063402;28;20063;-40
2023/09/21 06:55:56;;;;;;;8.13;5.63;;;;;;;20.43;64.15;99742.31;5067472;28;20040;-39
2023/09/21 06:58:22;;;;;;;6.28;5.65;;;;;;;20.67;63.55;99739.66;5065540;28;20040;-39
2023/09/21 07:00:48;;;;;;;9.88;6.00;;;;;;;20.92;62.61;99744.78;5056017;28;20052;-40
2023/09/21 07:03:15;;;;;;;9.38;5.68;;;;;;;21.08;62.11;99744.47;5078075;28;20097;-40
2023/09/21 07:05:43;;;;;;;9.18;5.60;;;;;;;21.22;61.48;99746.06;5070067;28;20067;-38
2023/09/21 07:08:10;;;;;;;9.40;5.63;;;;;;;21.36;61.07;99751.13;5068989;28;20532;-40
2023/09/21 07:10:36;;;;;;;7.30;5.53;;;;;;;21.54;60.41;99750.53;5073601;28;20052;-39
2023/09/21 07:13:03;;;;;;;8.07;5.15;;;;;;;21.63;60.00;99748.13;5063348;28;20040;-39
2023/09/21 07:15:29;;;;;;;7.85;5.30;;;;;;;21.82;59.17;99740.41;5060053;28;20043;-40
2023/09/21 07:17:56;;;;;;;7.20;5.35;;;;;;;22.02;58.76;99750.28;5079842;28;20050;-39
2023/09/21 07:20:26;;;;;;;6.28;5.15;;;;;;;22.83;57.36;99754.22;5044702;28;20049;-38
2023/09/21 07:22:56;;;;;;;7.65;5.53;;;;;;;23.29;55.51;99753.84;5063463;28;20434;-39
2023/09/21 07:25:25;;;;;;;8.23;5.10;;;;;;;23.39;55.04;99754.72;5067073;28;20028;-38
2023/09/21 07:27:54;;;;;;;8.95;5.60;;;;;;;23.35;54.87;99751.47;5082273;28;20525;-38
2023/09/21 07:30:21;;;;;;;10.85;5.60;;;;;;;23.56;54.46;99748.81;5077365;28;20070;-39
2023/09/21 07:32:47;;;;;;;8.27;5.57;;;;;;;23.51;54.20;99759.00;5077080;28;20051;-38
2023/09/21 07:35:19;;;;;;;8.80;5.55;;;;;;;23.17;54.74;99755.72;5073957;28;20048;-39
2023/09/21 07:37:46;;;;;;;8.43;5.60;;;;;;;22.70;55.41;99768.50;5047418;28;20505;-38
2023/09/21 07:40:13;;;;;;;7.78;5.05;;;;;;;22.72;55.71;99771.03;5075534;28;20036;-39
2023/09/21 07:42:42;;;;;;;9.25;5.72;;;;;;;22.39;56.24;99767.53;5074014;28;20546;-39
2023/09/21 07:45:09;;;;;;;8.40;5.72;;;;;;;22.00;56.56;99723.06;5077577;28;20127;-37
2023/09/21 07:47:35;;;;;;;9.45;5.45;;;;;;;22.36;56.54;99774.84;5068039;28;20565;-38
2023/09/21 07:50:02;;;;;;;9.70;6.22;;;;;;;22.23;56.54;99771.53;5076621;28;20036;-39
2023/09/21 07:52:30;;;;;;;7.22;5.93;;;;;;;22.07;56.98;99777.22;5064096;28;20472;-39
2023/09/21 07:54:59;;;;;;;13.20;6.32;;;;;;;21.89;57.47;99776.00;5068804;28;20432;-38
2023/09/21 07:57:25;;;;;;;10.32;6.10;;;;;;;21.70;58.13;99760.75;5066644;28;20419;-39
2023/09/21 07:59:51;;;;;;;7.93;5.97;;;;;;;21.91;57.93;99776.75;5062939;28;20372;-39
2023/09/21 08:02:18;;;;;;;14.48;6.78;;;;;;;22.03;58.07;99781.09;5063677;28;20044;-38
2023/09/21 08:04:44;;;;;;;8.95;5.90;;;;;;;22.24;57.60;99775.88;5059545;28;20176;-39
2023/09/21 08:07:10;;;;;;;9.73;6.25;;;;;;;22.31;57.32;99777.03;5083059;28;20241;-39
2023/09/21 08:09:36;;;;;;;10.75;6.20;;;;;;;22.16;57.48;99778.28;5084601;28;20127;-39
2023/09/21 08:12:02;;;;;;;11.55;6.45;;;;;;;21.81;58.16;99786.38;5073401;28;20040;-38
2023/09/21 08:14:29;;;;;;;11.55;5.70;;;;;;;21.72;58.54;99785.28;5071402;28;20044;-38
2023/09/21 08:16:55;;;;;;;15.10;7.05;;;;;;;21.56;58.69;99774.25;5077486;28;20058;-38
2023/09/21 08:19:21;;;;;;;12.02;7.45;;;;;;;21.69;59.00;99795.28;5071924;28;20453;-39
2023/09/21 08:21:48;;;;;;;11.23;7.25;;;;;;;21.75;58.90;99786.84;5066543;28;20491;-38
2023/09/21 08:24:14;;;;;;;10.55;6.82;;;;;;;21.64;58.88;99781.56;5077637;28;20746;-38
2023/09/21 08:26:40;;;;;;;14.25;8.02;;;;;;;21.80;58.74;99789.97;5067804;28;20040;-39
2023/09/21 08:29:07;;;;;;;10.32;7.65;;;;;;;21.74;59.03;99798.41;5072789;28;20416;-37
2023/09/21 08:31:33;;;;;;;12.55;7.68;;;;;;;21.72;59.17;99793.22;5048566;28;20085;-37
2023/09/21 08:33:59;;;;;;;12.77;8.18;;;;;;;21.79;59.00;99804.16;5074638;28;20418;-39
2023/09/21 08:36:25;;;;;;;15.00;8.55;;;;;;;21.59;59.11;99784.56;5074973;28;20089;-38
2023/09/21 08:38:53;;;;;;;16.77;8.13;;;;;;;21.62;59.32;99804.63;5068559;28;20098;-38
2023/09/21 08:41:19;;;;;;;16.38;8.60;;;;;;;21.39;60.21;99804.63;5064642;28;20040;-38
2023/09/21 08:43:47;;;;;;;15.98;8.52;;;;;;;21.19;60.76;99801.84;5068888;28;20045;-38
2023/09/21 08:46:14;;;;;;;13.75;8.13;;;;;;;20.94;61.10;99782.50;5080851;28;20036;-38
2023/09/21 08:48:40;;;;;;;13.65;8.38;;;;;;;21.02;61.33;99801.28;5077410;28;20036;-37
2023/09/21 08:51:15;;;;;;;17.20;8.48;;;;;;;20.98;61.25;99786.63;5077107;28;20044;-37
2023/09/21 08:53:41;;;;;;;16.50;8.45;;;;;;;20.97;61.69;99813.16;5060953;28;20041;-38
2023/09/21 08:56:08;;;;;;;17.98;8.82;;;;;;;20.89;62.13;99818.16;5081838;28;20046;-38
2023/09/21 08:58:40;;;;;;;15.00;8.07;;;;;;;20.79;62.53;99820.66;5080477;28;20085;-37
2023/09/21 09:01:07;;;;;;;13.93;8.60;;;;;;;20.81;62.66;99813.47;5064904;28;20062;-38
2023/09/21 09:03:33;;;;;;;17.30;8.98;;;;;;;20.79;62.86;99809.22;5079705;28;20042;-39
2023/09/21 09:05:59;;;;;;;14.07;8.60;;;;;;;20.83;62.90;99808.06;5062414;28;20137;-38
2023/09/21 09:08:25;;;;;;;15.63;8.68;;;;;;;20.76;62.83;99780.41;5081384;28;20042;-39
2023/09/21 09:10:53;;;;;;;14.85;8.80;;;;;;;21.01;62.83;99820.75;5067706;28;20090;-38
2023/09/21 09:13:21;;;;;;;14.82;8.57;;;;;;;21.06;62.67;99821.22;5072675;28;20047;-38
2023/09/21 09:15:47;;;;;;;19.48;8.80;;;;;;;21.17;62.52;99809.88;5075610;28;20071;-38
2023/09/21 09:18:16;;;;;;;16.65;8.75;;;;;;;21.38;61.97;99817.97;5073216;28;20039;-38
2023/09/21 09:20:44;;;;;;;16.75;8.93;;;;;;;21.63;61.29;99820.41;5068735;28;20044;-38
2023/09/21 09:23:12;;;;;;;15.18;7.93;;;;;;;21.75;60.64;99824.75;5066955;28;20060;-39
2023/09/21 09:25:40;;;;;;;15.02;8.10;;;;;;;21.91;60.16;99816.44;5072201;28;20102;-39
2023/09/21 09:28:09;;;;;;;13.65;8.60;;;;;;;22.11;59.60;99820.19;5061835;28;20040;-39
2023/09/21 09:30:36;;;;;;;13.77;8.50;;;;;;;21.76;59.20;99783.25;5080921;28;20041;-40
2023/09/21 09:33:03;;;;;;;14.15;7.90;;;;;;;21.85;59.39;99823.06;5032442;28;20037;-38
2023/09/21 09:35:30;;;;;;;14.48;8.55;;;;;;;21.87;59.28;99821.16;5065633;28;20118;-38
2023/09/21 09:37:58;;;;;;;14.18;8.10;;;;;;;21.56;59.35;99798.06;5050441;28;20101;-40
2023/09/21 09:40:24;;;;;;;12.65;8.15;;;;;;;21.60;59.41;99819.81;5066784;28;20132;-39
2023/09/21 09:42:51;;;;;;;16.83;7.82;;;;;;;21.63;59.35;99824.84;5054153;28;20032;-38
2023/09/21 09:45:25;;;;;;;21.60;8.98;;;;;;;21.75;59.25;99826.56;5066285;28;20044;-41
2023/09/21 09:47:56;;;;;;;11.82;7.85;;;;;;;21.78;59.23;99831.59;5066372;28;20040;-38
2023/09/21 09:50:24;;;;;;;13.18;8.13;;;;;;;21.51;59.83;99824.03;5068443;28;20137;-39
2023/09/21 09:53:00;;;;;;;17.23;8.48;;;;;;;21.40;60.56;99838.06;5084000;28;20036;-40
2023/09/21 09:55:31;;;;;;;12.05;7.45;;;;;;;21.24;60.93;99842.84;5047790;28;20040;-38
2023/09/21 09:57:59;;;;;;;11.68;7.80;;;;;;;21.08;61.27;99834.34;5051109;28;20201;-38
2023/09/21 10:00:27;;;;;;;11.95;7.78;;;;;;;20.91;61.54;99819.75;5064402;28;20123;-38
2023/09/21 10:02:56;;;;;;;13.70;8.35;;;;;;;20.91;62.28;99840.03;5056512;28;20089;-39
2023/09/21 10:05:27;;;;;;;15.60;7.95;;;;;;;20.81;62.73;99842.53;5074903;28;20543;-38
2023/09/21 10:08:03;;;;;;;14.75;8.07;;;;;;;20.75;63.32;99839.50;5077869;28;20066;-39
2023/09/21 10:10:36;;;;;;;16.83;8.18;;;;;;;20.84;63.33;99841.44;5071267;28;20036;-38
2023/09/21 10:13:02;;;;;;;13.00;7.93;;;;;;;20.94;63.16;99838.00;5070700;28;20047;-39
2023/09/21 10:15:29;;;;;;;12.63;7.43;;;;;;;21.03;63.11;99837.34;5072654;28;20048;-39
2023/09/21 10:17:57;;;;;;;13.88;7.55;;;;;;;21.18;62.99;99838.00;5079149;28;20043;-39
2023/09/21 10:20:27;;;;;;;13.32;7.97;;;;;;;21.14;62.82;99834.72;5071554;28;20048;-39
2023/09/21 10:22:55;;;;;;;15.02;8.43;;;;;;;21.21;62.81;99844.84;5071105;28;20478;-39
2023/09/21 10:25:44;;;;;;;12.63;8.10;;;;;;;21.40;62.67;99843.38;5067884;28;20089;-38
2023/09/21 10:28:28;;;;;;;11.57;8.68;;;;;;;21.69;61.83;99837.63;5067848;28;20036;-39
2023/09/21 10:30:55;;;;;;;15.02;8.85;;;;;;;21.82;61.51;99851.59;5073720;28;20113;-38
2023/09/21 10:33:22;;;;;;;15.25;9.93;;;;;;;21.43;61.86;99811.38;5067062;28;20047;-37
2023/09/21 10:35:51;;;;;;;13.30;9.55;;;;;;;21.39;62.45;99849.63;5078391;28;20467;-39
2023/09/21 10:38:18;;;;;;;14.65;9.45;;;;;;;21.14;63.12;99847.16;5056380;28;20581;-41
2023/09/21 10:40:44;;;;;;;16.08;9.48;;;;;;;21.11;63.49;99849.97;5087137;28;20040;-39
2023/09/21 10:43:38;;;;;;;16.27;9.02;;;;;;;21.33;63.32;99842.13;5075011;28;20036;-39
2023/09/21 10:46:19;;;;;;;14.15;8.75;;;;;;;21.74;62.13;99841.59;5075752;28;20036;-38
2023/09/21 10:48:46;;;;;;;17.48;9.10;;;;;;;21.66;61.55;99793.72;5059109;28;21022;-40
2023/09/21 10:51:12;;;;;;;15.20;9.50;;;;;;;21.82;61.23;99804.78;5079785;28;20048;-39
2023/09/21 10:53:38;;;;;;;15.48;9.10;;;;;;;22.05;61.19;99837.41;5077957;28;20482;-39
2023/09/21 10:56:05;;;;;;;13.63;9.40;;;;;;;22.04;61.29;99830.41;5072692;28;20569;-40
2023/09/21 10:58:34;;;;;;;14.27;9.73;;;;;;;22.06;61.10;99833.81;5062699;28;20049;-38
2023/09/21 11:01:01;;;;;;;17.02;9.00;;;;;;;22.44;60.43;99838.69;5082703;28;20060;-40
2023/09/21 11:03:28;;;;;;;14.02;9.70;;;;;;;22.67;59.54;99836.78;5069176;28;20044;-40
2023/09/21 11:05:54;;;;;;;14.82;9.13;;;;;;;22.51;59.36;99793.97;5076242;28;20056;-39
2023/09/21 11:08:26;;;;;;;15.07;9.13;;;;;;;22.86;59.15;99830.88;5069394;28;20118;-38
2023/09/21 11:10:53;;;;;;;12.10;9.07;;;;;;;22.74;59.32;99840.66;5053987;28;20436;-39
2023/09/21 11:13:19;;;;;;;14.32;8.82;;;;;;;22.65;59.42;99806.94;5074694;28;20081;-40
2023/09/21 11:15:46;;;;;;;13.30;9.27;;;;;;;22.71;59.23;99838.28;5078451;28;20044;-38
2023/09/21 11:18:12;;;;;;;15.52;8.60;;;;;;;22.48;59.60;99812.78;5075906;28;20123;-40
2023/09/21 11:20:40;;;;;;;12.18;8.65;;;;;;;22.87;59.27;99840.50;5043310;28;20132;-37
2023/09/21 11:23:10;;;;;;;12.30;8.52;;;;;;;23.11;58.62;99841.13;5063428;28;20496;-38
2023/09/21 11:25:35;;;;;;;;;;;;;;;23.20;58.04;99843.00;5063696;28;20037;-38
2023/09/21 11:28:01;;;;;;;13.63;8.25;;;;;;;23.18;58.15;99842.31;5073752;28;20661;-39
2023/09/21 11:30:27;;;;;;;13.93;8.75;;;;;;;23.19;58.06;99842.16;5056247;28;20142;-39
2023/09/21 11:32:57;;;;;;;13.45;8.88;;;;;;;23.23;58.02;99840.94;5073188;28;20148;-40
2023/09/21 11:35:24;;;;;;;14.48;9.13;;;;;;;23.46;57.48;99836.34;5064859;28;20053;-37
2023/09/21 11:37:51;;;;;;;13.90;9.30;;;;;;;23.57;57.29;99838.94;5038045;28;20044;-38